Time;durP1;ratioP1;P1;durP2;ratioP2;P2;SDS_P1;SDS_P2;PMS_P1;PMS_P2;Temp;Humidity;BMP_temperature;BMP_pressure;BME280_temperature;BME280_humidity;BME280_pressure;Samples;Min_cycle;Max_cycle;Signal;HPM_P1;HPM_P2
2021/05/04 00:01:12;;;;;;;9.80;6.60;;;;;;;;;;5011894;28;20180;-86
2021/05/04 00:04:16;;;;;;;7.57;6.47;;;;;;;;;;5000308;28;20691;-87
2021/05/04 00:07:21;;;;;;;8.27;6.30;;;;;;;;;;5011087;28;20188;-87
2021/05/04 00:10:25;;;;;;;8.60;6.50;;;;;;;;;;5023097;28;20177;-87
2021/05/04 00:13:29;;;;;;;8.30;6.60;;;;;;;;;;4999892;28;20196;-86
2021/05/04 00:16:33;;;;;;;8.30;6.37;;;;;;;;;;5035014;28;20188;-86
2021/05/04 00:19:39;;;;;;;7.73;6.33;;;;;;;;;;5019622;28;20184;-86
2021/05/04 00:22:43;;;;;;;9.20;6.20;;;;;;;;;;5019269;28;20663;-87
2021/05/04 00:25:47;;;;;;;8.57;6.57;;;;;;;;;;5035722;28;20213;-87
2021/05/04 00:28:52;;;;;;;9.73;6.23;;;;;;;;;;5015364;28;20200;-86
2021/05/04 00:31:56;;;;;;;8.23;6.40;;;;;;;;;;5030880;28;20184;-86
2021/05/04 00:35:00;;;;;;;9.47;7.40;;;;;;;;;;5042175;28;20229;-86
2021/05/04 00:38:04;;;;;;;8.37;6.50;;;;;;;;;;5009108;28;20199;-87
2021/05/04 00:41:08;;;;;;;7.70;6.37;;;;;;;;;;5042213;28;20184;-87
2021/05/04 00:44:13;;;;;;;8.30;6.53;;;;;;;;;;5041828;28;20212;-86
2021/05/04 00:47:17;;;;;;;10.27;6.30;;;;;;;;;;5000899;28;20200;-86
2021/05/04 00:50:21;;;;;;;9.37;6.43;;;;;;;;;;5010548;28;20536;-86
2021/05/04 00:53:26;;;;;;;6.47;5.73;;;;;;;;;;5010346;28;20184;-86
2021/05/04 00:56:31;;;;;;;8.90;6.83;;;;;;;;;;5018971;28;20570;-86
2021/05/04 00:59:36;;;;;;;7.67;6.27;;;;;;;;;;5012411;28;20552;-87
2021/05/04 01:02:42;;;;;;;9.70;6.10;;;;;;;;;;5010535;28;20188;-86
2021/05/04 01:05:46;;;;;;;8.83;6.30;;;;;;;;;;5014481;28;20246;-86
2021/05/04 01:08:50;;;;;;;8.87;6.80;;;;;;;;;;5041721;28;20192;-86
2021/05/04 01:11:55;;;;;;;8.63;6.60;;;;;;;;;;5022182;28;20196;-87
2021/05/04 01:14:59;;;;;;;7.83;6.27;;;;;;;;;;4990639;28;20221;-87
2021/05/04 01:18:03;;;;;;;9.30;6.20;;;;;;;;;;5001999;28;20533;-87
2021/05/04 01:21:07;;;;;;;7.57;6.37;;;;;;;;;;5002084;28;20181;-87
2021/05/04 01:24:13;;;;;;;8.57;6.03;;;;;;;;;;5009667;28;20258;-87
2021/05/04 01:27:17;;;;;;;7.17;5.93;;;;;;;;;;5037179;28;20189;-86
2021/05/04 01:30:22;;;;;;;7.77;6.23;;;;;;;;;;5039216;28;20559;-87
2021/05/04 01:33:26;;;;;;;8.20;6.37;;;;;;;;;;5016857;28;20184;-86
2021/05/04 01:36:30;;;;;;;9.00;6.07;;;;;;;;;;5029711;28;20189;-86
2021/05/04 01:39:43;;;;;;;8.20;5.80;;;;;;;;;;5021953;28;20181;-86
2021/05/04 01:42:47;;;;;;;6.60;5.60;;;;;;;;;;5010394;28;20197;-87
2021/05/04 01:46:09;;;;;;;8.37;6.37;;;;;;;;;;5030839;28;20208;-86
2021/05/04 01:49:13;;;;;;;7.30;5.60;;;;;;;;;;5021602;28;20591;-88
2021/05/04 01:52:17;;;;;;;7.30;5.47;;;;;;;;;;4998774;28;20192;-87
2021/05/04 01:55:21;;;;;;;5.33;4.83;;;;;;;;;;5009949;28;20221;-86
2021/05/04 01:58:25;;;;;;;8.07;5.23;;;;;;;;;;4998942;28;20624;-87
2021/05/04 02:01:30;;;;;;;5.17;4.67;;;;;;;;;;4990581;28;20186;-86
2021/05/04 02:04:34;;;;;;;7.73;5.33;;;;;;;;;;5004863;28;20643;-86
2021/05/04 02:07:38;;;;;;;7.67;4.77;;;;;;;;;;4994210;28;20548;-87
2021/05/04 02:10:42;;;;;;;4.97;4.47;;;;;;;;;;5023923;28;20578;-87
2021/05/04 02:13:46;;;;;;;5.47;4.73;;;;;;;;;;4982939;28;20177;-86
2021/05/04 02:16:51;;;;;;;5.40;4.90;;;;;;;;;;4993780;28;20521;-87
2021/05/04 02:19:55;;;;;;;7.10;5.00;;;;;;;;;;5012575;28;20192;-87
2021/05/04 02:23:09;;;;;;;5.30;4.73;;;;;;;;;;5018900;28;20193;-86
2021/05/04 02:26:15;;;;;;;5.03;4.27;;;;;;;;;;5002224;28;20611;-87
2021/05/04 02:29:20;;;;;;;8.47;4.50;;;;;;;;;;5002062;28;20623;-86
2021/05/04 02:32:24;;;;;;;5.17;4.30;;;;;;;;;;5001765;28;20200;-86
2021/05/04 02:35:28;;;;;;;4.77;4.10;;;;;;;;;;5018557;28;21048;-87
2021/05/04 02:38:34;;;;;;;5.97;4.57;;;;;;;;;;5021270;28;20555;-87
2021/05/04 02:41:38;;;;;;;5.37;4.37;;;;;;;;;;4993718;28;20541;-87
2021/05/04 02:44:42;;;;;;;4.97;4.43;;;;;;;;;;5006721;28;20685;-86
2021/05/04 02:47:47;;;;;;;5.17;4.20;;;;;;;;;;5019821;28;20594;-86
2021/05/04 02:50:52;;;;;;;4.57;4.07;;;;;;;;;;5015934;28;20598;-87
2021/05/04 02:53:56;;;;;;;6.43;4.43;;;;;;;;;;5027407;28;20594;-86
2021/05/04 02:57:00;;;;;;;5.47;4.57;;;;;;;;;;5020964;28;21069;-87
2021/05/04 03:00:05;;;;;;;3.97;3.30;;;;;;;;;;5022063;28;20591;-86
2021/05/04 03:03:10;;;;;;;4.07;3.60;;;;;;;;;;5032711;28;20539;-86
2021/05/04 03:06:14;;;;;;;4.57;3.87;;;;;;;;;;5020926;28;20643;-86
2021/05/04 03:09:19;;;;;;;5.40;3.43;;;;;;;;;;5026822;28;21158;-87
2021/05/04 03:12:23;;;;;;;3.77;3.10;;;;;;;;;;5020964;28;20543;-86
2021/05/04 03:15:27;;;;;;;4.00;3.60;;;;;;;;;;5031240;28;20657;-87
2021/05/04 03:18:31;;;;;;;3.97;3.20;;;;;;;;;;5032367;28;20547;-86
2021/05/04 03:21:35;;;;;;;3.60;3.00;;;;;;;;;;5049878;23;20689;-85
2021/05/04 03:24:40;;;;;;;3.63;3.30;;;;;;;;;;5031592;28;20944;-85
2021/05/04 03:27:45;;;;;;;4.80;3.20;;;;;;;;;;5031853;28;20543;-85
2021/05/04 03:30:49;;;;;;;5.03;2.90;;;;;;;;;;5042903;28;20622;-85
2021/05/04 03:33:53;;;;;;;6.47;3.33;;;;;;;;;;5031570;28;20551;-85
2021/05/04 03:36:57;;;;;;;3.73;3.27;;;;;;;;;;5035777;28;21195;-85
2021/05/04 03:40:03;;;;;;;7.10;2.80;;;;;;;;;;5020139;28;21187;-85
2021/05/04 03:43:08;;;;;;;3.77;3.00;;;;;;;;;;5031351;28;20547;-85
2021/05/04 03:46:12;;;;;;;5.17;3.30;;;;;;;;;;5020371;28;20539;-85
2021/05/04 03:49:16;;;;;;;5.00;2.90;;;;;;;;;;5031454;28;20539;-85
2021/05/04 03:52:20;;;;;;;3.67;3.27;;;;;;;;;;5042523;28;20598;-85
2021/05/04 03:55:24;;;;;;;4.30;3.00;;;;;;;;;;5031182;28;20208;-85
2021/05/04 03:58:28;;;;;;;3.37;2.90;;;;;;;;;;5019807;28;20192;-85
2021/05/04 04:01:35;;;;;;;2.77;2.57;;;;;;;;;;5020042;28;20622;-87
2021/05/04 04:04:43;;;;;;;4.93;3.03;;;;;;;;;;5042598;28;20524;-87
2021/05/04 04:07:47;;;;;;;3.97;2.97;;;;;;;;;;5022864;28;20509;-87
2021/05/04 04:10:51;;;;;;;4.73;3.10;;;;;;;;;;5022168;28;20224;-85
2021/05/04 04:13:55;;;;;;;4.30;3.10;;;;;;;;;;5022527;28;21073;-86
2021/05/04 04:17:00;;;;;;;4.77;2.90;;;;;;;;;;5022533;28;20595;-86
2021/05/04 04:20:06;;;;;;;3.70;3.00;;;;;;;;;;5010781;28;20650;-86
2021/05/04 04:23:10;;;;;;;3.40;2.97;;;;;;;;;;5011211;28;20536;-86
2021/05/04 04:26:14;;;;;;;3.00;2.53;;;;;;;;;;5010340;28;20593;-86
2021/05/04 04:29:18;;;;;;;5.23;4.73;;;;;;;;;;5033876;28;20536;-86
2021/05/04 04:32:23;;;;;;;4.70;4.13;;;;;;;;;;5010980;28;20196;-85
2021/05/04 04:35:27;;;;;;;4.87;4.17;;;;;;;;;;5021898;28;20611;-85
2021/05/04 04:38:31;;;;;;;2.90;2.70;;;;;;;;;;5010492;28;20196;-85
2021/05/04 04:41:35;;;;;;;3.97;3.20;;;;;;;;;;5021659;28;20690;-85
2021/05/04 04:44:39;;;;;;;3.37;3.07;;;;;;;;;;5010677;28;20185;-85
2021/05/04 04:47:44;;;;;;;3.87;3.27;;;;;;;;;;5021897;28;20177;-85
2021/05/04 04:50:48;;;;;;;4.40;3.50;;;;;;;;;;5010545;28;20212;-86
2021/05/04 04:53:53;;;;;;;3.77;3.17;;;;;;;;;;5022884;28;20181;-85
2021/05/04 04:56:57;;;;;;;3.77;3.07;;;;;;;;;;5017586;28;20307;-86
2021/05/04 05:00:01;;;;;;;3.97;2.83;;;;;;;;;;5038149;28;20212;-86
2021/05/04 05:03:05;;;;;;;3.23;2.60;;;;;;;;;;5035717;28;20180;-86
2021/05/04 05:06:09;;;;;;;3.50;2.70;;;;;;;;;;5039525;28;20188;-86
2021/05/04 05:09:15;;;;;;;3.20;2.70;;;;;;;;;;5029918;28;20200;-86
2021/05/04 05:12:19;;;;;;;6.70;2.93;;;;;;;;;;5041190;28;20180;-86
2021/05/04 05:15:24;;;;;;;7.33;3.20;;;;;;;;;;5029775;28;20184;-85
2021/05/04 05:18:28;;;;;;;3.97;3.07;;;;;;;;;;5041180;28;20199;-85
2021/05/04 05:21:35;;;;;;;4.33;3.50;;;;;;;;;;5041079;28;20223;-84
2021/05/04 05:24:39;;;;;;;3.33;2.93;;;;;;;;;;5031109;28;20200;-84
2021/05/04 05:27:43;;;;;;;3.13;2.70;;;;;;;;;;5019140;28;20181;-84
2021/05/04 05:30:47;;;;;;;9.40;3.30;;;;;;;;;;5032508;28;20308;-84
2021/05/04 05:33:53;;;;;;;2.97;2.73;;;;;;;;;;5010315;28;20200;-85
2021/05/04 05:36:58;;;;;;;3.50;2.93;;;;;;;;;;5032735;28;20201;-85
2021/05/04 05:40:03;;;;;;;2.80;2.60;;;;;;;;;;5014402;28;20575;-85
2021/05/04 05:43:07;;;;;;;5.20;3.03;;;;;;;;;;5039805;28;20192;-85
2021/05/04 05:46:12;;;;;;;3.23;2.67;;;;;;;;;;5033859;28;20176;-85
2021/05/04 05:49:16;;;;;;;6.23;3.13;;;;;;;;;;5051285;28;20204;-85
2021/05/04 05:52:20;;;;;;;9.60;4.10;;;;;;;;;;5044632;28;20192;-85
2021/05/04 05:55:24;;;;;;;3.90;3.50;;;;;;;;;;5023323;28;20559;-85
2021/05/04 05:58:28;;;;;;;9.40;3.13;;;;;;;;;;5024709;28;20655;-84
2021/05/04 06:01:33;;;;;;;6.33;2.90;;;;;;;;;;5025032;28;20212;-85
2021/05/04 06:04:37;;;;;;;5.20;2.90;;;;;;;;;;5025094;28;20184;-85
2021/05/04 06:07:41;;;;;;;7.73;2.80;;;;;;;;;;5037804;28;20201;-83
2021/05/04 06:10:47;;;;;;;4.37;2.27;;;;;;;;;;5017273;28;20568;-83
2021/05/04 06:13:51;;;;;;;3.90;2.37;;;;;;;;;;5028898;28;20184;-83
2021/05/04 06:16:55;;;;;;;4.47;2.27;;;;;;;;;;5044788;28;20208;-83
2021/05/04 06:19:59;;;;;;;4.73;2.50;;;;;;;;;;5021315;28;20223;-83
2021/05/04 06:23:05;;;;;;;3.77;2.50;;;;;;;;;;5013234;28;20180;-83
2021/05/04 06:26:09;;;;;;;6.17;1.90;;;;;;;;;;5036101;28;20648;-83
2021/05/04 06:29:13;;;;;;;3.63;2.50;;;;;;;;;;5017339;28;20192;-84
2021/05/04 06:32:23;;;;;;;2.80;2.50;;;;;;;;;;5032418;28;20176;-83
2021/05/04 06:35:28;;;;;;;2.10;1.90;;;;;;;;;;5044044;28;20192;-83
2021/05/04 06:38:32;;;;;;;3.43;2.10;;;;;;;;;;5046449;28;20181;-83
2021/05/04 06:41:37;;;;;;;2.83;2.33;;;;;;;;;;5012861;28;20228;-83
2021/05/04 06:44:41;;;;;;;3.00;1.67;;;;;;;;;;5033717;28;20185;-83
2021/05/04 06:47:45;;;;;;;3.73;2.57;;;;;;;;;;5032301;28;20180;-83
2021/05/04 06:50:50;;;;;;;3.33;1.90;;;;;;;;;;5014806;28;20691;-83
2021/05/04 06:53:54;;;;;;;2.43;2.00;;;;;;;;;;5039915;28;20189;-83
2021/05/04 06:56:58;;;;;;;2.97;2.43;;;;;;;;;;5023629;28;20208;-83
2021/05/04 07:00:05;;;;;;;4.23;2.33;;;;;;;;;;5023862;28;20228;-83
2021/05/04 07:03:09;;;;;;;2.57;2.20;;;;;;;;;;5013773;28;20176;-83
2021/05/04 07:06:14;;;;;;;2.13;1.93;;;;;;;;;;5027226;28;20524;-83
2021/05/04 07:09:18;;;;;;;3.23;2.93;;;;;;;;;;5022746;28;20200;-83
2021/05/04 07:12:22;;;;;;;2.80;2.50;;;;;;;;;;5032103;28;20185;-83
2021/05/04 07:15:26;;;;;;;3.27;2.60;;;;;;;;;;5051175;28;20188;-83
2021/05/04 07:18:35;;;;;;;2.83;2.20;;;;;;;;;;5044335;28;20181;-83
2021/05/04 07:21:39;;;;;;;6.33;2.50;;;;;;;;;;5024694;28;20223;-83
2021/05/04 07:24:53;;;;;;;3.87;2.30;;;;;;;;;;5033444;28;20184;-83
2021/05/04 07:27:58;;;;;;;5.63;4.27;;;;;;;;;;5031630;28;20195;-83
2021/05/04 07:31:02;;;;;;;3.80;2.50;;;;;;;;;;5043130;28;20568;-83
2021/05/04 07:34:06;;;;;;;4.17;3.13;;;;;;;;;;5043323;28;20188;-83
2021/05/04 07:37:11;;;;;;;2.90;2.17;;;;;;;;;;5031962;28;20208;-83
2021/05/04 07:40:15;;;;;;;2.53;2.17;;;;;;;;;;5022963;28;20682;-83
2021/05/04 07:43:20;;;;;;;6.53;2.43;;;;;;;;;;5012430;28;20185;-83
2021/05/04 07:46:24;;;;;;;3.53;2.10;;;;;;;;;;5023302;28;20620;-83
2021/05/04 07:49:37;;;;;;;3.03;2.50;;;;;;;;;;5034403;28;20196;-83
2021/05/04 07:52:41;;;;;;;3.10;2.30;;;;;;;;;;5034579;28;20517;-83
2021/05/04 07:55:45;;;;;;;2.27;2.07;;;;;;;;;;5011713;28;20180;-83
2021/05/04 07:58:49;;;;;;;4.23;2.43;;;;;;;;;;5022994;28;20196;-83
2021/05/04 08:01:53;;;;;;;4.20;2.40;;;;;;;;;;5011404;28;20201;-83
2021/05/04 08:04:58;;;;;;;4.00;2.30;;;;;;;;;;5022970;28;20181;-83
2021/05/04 08:08:02;;;;;;;3.10;1.97;;;;;;;;;;5022615;28;20184;-83
2021/05/04 08:11:07;;;;;;;4.53;2.33;;;;;;;;;;5011465;28;20231;-83
2021/05/04 08:14:11;;;;;;;3.60;2.20;;;;;;;;;;5022403;28;20189;-84
2021/05/04 08:17:18;;;;;;;5.33;2.07;;;;;;;;;;5033827;28;20544;-83
2021/05/04 08:20:26;;;;;;;10.53;2.47;;;;;;;;;;5022122;28;20718;-84
2021/05/04 08:23:31;;;;;;;6.10;1.80;;;;;;;;;;5022083;28;20177;-84
2021/05/04 08:26:35;;;;;;;2.57;1.83;;;;;;;;;;5033199;28;20197;-83
2021/05/04 08:29:39;;;;;;;2.73;1.90;;;;;;;;;;5033033;28;20181;-83
2021/05/04 08:32:44;;;;;;;2.57;1.90;;;;;;;;;;5033462;28;20623;-83
2021/05/04 08:35:48;;;;;;;5.53;2.00;;;;;;;;;;5022550;28;20545;-83
2021/05/04 08:38:52;;;;;;;2.60;1.60;;;;;;;;;;5022234;28;20635;-84
2021/05/04 08:41:56;;;;;;;2.40;1.70;;;;;;;;;;5021909;28;20181;-84
2021/05/04 08:45:04;;;;;;;2.40;1.90;;;;;;;;;;5033115;28;20176;-84
2021/05/04 08:48:09;;;;;;;6.10;1.80;;;;;;;;;;5021839;28;20168;-84
2021/05/04 08:51:14;;;;;;;5.13;1.80;;;;;;;;;;5021641;28;20217;-84
2021/05/04 08:54:18;;;;;;;6.17;1.70;;;;;;;;;;5032771;28;20189;-84
2021/05/04 08:57:22;;;;;;;2.47;1.57;;;;;;;;;;5021613;28;20670;-84
2021/05/04 09:00:27;;;;;;;2.00;1.57;;;;;;;;;;5021651;28;20212;-83
2021/05/04 09:03:35;;;;;;;3.73;1.60;;;;;;;;;;5021577;28;20185;-84
2021/05/04 09:06:46;;;;;;;6.67;1.50;;;;;;;;;;5021606;28;20177;-84
2021/05/04 09:10:15;;;;;;;2.63;1.40;;;;;;;;;;5021441;28;20217;-84
2021/05/04 09:13:31;;;;;;;7.03;4.13;;;;;;;;;;5021041;28;20181;-84
2021/05/04 09:16:43;;;;;;;3.70;2.13;;;;;;;;;;5039602;28;20192;-84
2021/05/04 09:20:11;;;;;;;2.97;2.40;;;;;;;;;;5052424;28;21663;-84
2021/05/04 09:23:34;;;;;;;2.60;1.50;;;;;;;;;;4973953;28;20210;-86
2021/05/04 09:26:38;;;;;;;2.03;1.20;;;;;;;;;;4974441;28;20199;-85
2021/05/04 09:29:45;;;;;;;4.67;1.60;;;;;;;;;;4974677;28;20179;-86
2021/05/04 09:32:50;;;;;;;2.20;1.33;;;;;;;;;;4986225;28;20549;-86
2021/05/04 09:35:54;;;;;;;1.87;1.70;;;;;;;;;;4960365;28;20202;-85
2021/05/04 09:38:58;;;;;;;1.60;1.50;;;;;;;;;;4971340;28;20234;-85
2021/05/04 09:42:10;;;;;;;1.57;1.40;;;;;;;;;;4993961;28;20222;-86
2021/05/04 09:45:25;;;;;;;2.30;1.40;;;;;;;;;;4982217;28;20182;-85
2021/05/04 09:48:37;;;;;;;2.27;1.20;;;;;;;;;;4981649;28;20178;-85
2021/05/04 09:51:44;;;;;;;3.67;1.60;;;;;;;;;;4993226;28;20218;-86
2021/05/04 09:54:48;;;;;;;2.10;1.23;;;;;;;;;;4981762;28;20205;-86
2021/05/04 09:57:53;;;;;;;4.47;1.43;;;;;;;;;;4959781;28;20218;-86
2021/05/04 10:00:57;;;;;;;1.80;1.27;;;;;;;;;;4994200;28;20213;-86
2021/05/04 10:04:04;;;;;;;4.70;1.87;;;;;;;;;;4982068;28;20198;-86
2021/05/04 10:07:08;;;;;;;2.63;1.40;;;;;;;;;;4993294;28;20209;-85
2021/05/04 10:10:17;;;;;;;4.43;1.60;;;;;;;;;;4993471;28;20190;-85
2021/05/04 10:13:23;;;;;;;1.90;1.27;;;;;;;;;;4992999;28;20187;-86
2021/05/04 10:16:29;;;;;;;2.33;1.30;;;;;;;;;;4981439;28;20669;-86
2021/05/04 10:19:36;;;;;;;1.70;1.37;;;;;;;;;;4980916;28;20190;-86
2021/05/04 10:22:41;;;;;;;5.67;1.17;;;;;;;;;;4978928;28;20234;-85
2021/05/04 10:25:47;;;;;;;2.43;1.33;;;;;;;;;;4996563;28;20190;-85
2021/05/04 10:28:54;;;;;;;5.37;1.30;;;;;;;;;;4974201;28;20201;-86
2021/05/04 10:31:59;;;;;;;7.17;1.37;;;;;;;;;;4974299;28;20225;-85
2021/05/04 10:35:29;;;;;;;3.00;1.33;;;;;;;;;;4974236;28;20657;-85
2021/05/04 10:38:53;;;;;;;2.93;1.33;;;;;;;;;;4963207;28;20218;-85
2021/05/04 10:41:58;;;;;;;1.97;1.20;;;;;;;;;;4985278;28;20222;-86
2021/05/04 10:45:02;;;;;;;3.97;1.20;;;;;;;;;;4985184;28;20178;-86
2021/05/04 10:48:09;;;;;;;3.70;1.23;;;;;;;;;;4971363;28;20186;-86
2021/05/04 10:51:18;;;;;;;2.97;1.53;;;;;;;;;;4973406;28;20226;-85
2021/05/04 10:54:23;;;;;;;3.53;1.30;;;;;;;;;;4973700;28;20190;-85
2021/05/04 10:57:28;;;;;;;2.23;1.20;;;;;;;;;;4996748;28;20230;-86
2021/05/04 11:00:53;;;;;;;2.97;1.40;;;;;;;;;;4973745;28;20206;-85
2021/05/04 11:03:59;;;;;;;3.20;1.60;;;;;;;;;;4973363;28;20198;-85
2021/05/04 11:07:04;;;;;;;2.10;1.30;;;;;;;;;;4996448;28;20526;-86
2021/05/04 11:10:12;;;;;;;3.97;1.40;;;;;;;;;;4973126;28;20190;-86
2021/05/04 11:13:49;;;;;;;3.93;1.83;;;;;;;;;;4984514;28;20195;-86
2021/05/04 11:16:53;;;;;;;5.37;1.70;;;;;;;;;;4972525;28;20182;-86
2021/05/04 11:19:57;;;;;;;2.17;1.20;;;;;;;;;;4983961;28;20190;-86
2021/05/04 11:23:06;;;;;;;3.10;1.60;;;;;;;;;;4984218;28;20542;-86
2021/05/04 11:26:10;;;;;;;7.70;1.53;;;;;;;;;;4991862;28;20191;-86
2021/05/04 11:29:16;;;;;;;7.17;1.43;;;;;;;;;;4961348;28;20541;-86
2021/05/04 11:32:25;;;;;;;4.30;1.37;;;;;;;;;;4994812;28;20221;-87
2021/05/04 11:35:37;;;;;;;9.67;1.60;;;;;;;;;;4962036;28;20195;-86
2021/05/04 11:38:41;;;;;;;2.00;1.80;;;;;;;;;;4955575;28;20214;-86
2021/05/04 11:42:01;;;;;;;6.07;1.93;;;;;;;;;;4968467;28;20225;-86
2021/05/04 11:45:19;;;;;;;5.27;1.73;;;;;;;;;;4959164;28;20186;-85
2021/05/04 11:48:26;;;;;;;5.87;1.43;;;;;;;;;;4985139;28;20511;-86
2021/05/04 11:51:30;;;;;;;8.80;1.37;;;;;;;;;;4972486;28;20225;-87
2021/05/04 11:54:36;;;;;;;2.90;1.50;;;;;;;;;;4982664;28;20189;-85
2021/05/04 11:57:42;;;;;;;1.87;1.30;;;;;;;;;;4972754;28;20182;-90
2021/05/04 12:00:54;;;;;;;6.40;1.57;;;;;;;;;;4983098;28;20225;-88
2021/05/04 12:03:58;;;;;;;3.83;1.47;;;;;;;;;;4982986;28;20198;-89
2021/05/04 12:07:02;;;;;;;2.93;1.83;;;;;;;;;;4983508;28;20186;-89
2021/05/04 12:10:16;;;;;;;13.70;2.80;;;;;;;;;;4972166;28;20648;-87
2021/05/04 12:13:23;;;;;;;6.47;1.60;;;;;;;;;;4982851;28;20193;-87
2021/05/04 12:16:27;;;;;;;4.97;1.50;;;;;;;;;;4983108;28;20190;-87
2021/05/04 12:19:32;;;;;;;2.77;2.10;;;;;;;;;;4994119;28;20218;-88
2021/05/04 12:22:43;;;;;;;12.53;1.73;;;;;;;;;;4982715;28;20226;-87
2021/05/04 12:25:53;;;;;;;2.20;1.40;;;;;;;;;;4960037;28;20198;-87
2021/05/04 12:28:57;;;;;;;4.23;1.57;;;;;;;;;;4960694;28;20179;-87
2021/05/04 12:32:02;;;;;;;5.73;1.50;;;;;;;;;;4982675;28;20221;-86
2021/05/04 12:35:33;;;;;;;4.47;1.50;;;;;;;;;;4993917;28;20190;-85
2021/05/04 12:38:44;;;;;;;1.87;1.63;;;;;;;;;;4960638;28;20206;-87
2021/05/04 12:41:50;;;;;;;3.10;1.30;;;;;;;;;;4993113;28;20221;-87
2021/05/04 12:45:07;;;;;;;5.87;1.30;;;;;;;;;;4982654;28;20179;-87
2021/05/04 12:48:15;;;;;;;2.40;1.20;;;;;;;;;;4964417;28;20183;-87
2021/05/04 12:51:41;;;;;;;7.60;1.33;;;;;;;;;;4970698;28;20688;-87
2021/05/04 12:54:47;;;;;;;7.40;1.60;;;;;;;;;;4982360;28;20202;-87
2021/05/04 12:58:12;;;;;;;3.00;1.40;;;;;;;;;;4959601;28;20182;-87
2021/05/04 13:01:16;;;;;;;2.50;1.80;;;;;;;;;;4976616;28;20230;-87
2021/05/04 13:04:47;;;;;;;6.30;1.40;;;;;;;;;;4981545;28;20206;-87
2021/05/04 13:08:01;;;;;;;17.67;9.87;;;;;;;;;;4960424;28;20198;-88
2021/05/04 13:11:06;;;;;;;3.40;1.60;;;;;;;;;;4970920;28;20213;-87
2021/05/04 13:14:42;;;;;;;6.43;1.37;;;;;;;;;;4993848;28;20547;-87
2021/05/04 13:18:12;;;;;;;2.57;1.10;;;;;;;;;;4968914;28;20187;-87
2021/05/04 13:31:33;;;;;;;9.90;1.73;;;;;;;;;;4994023;28;20218;-85
2021/05/04 13:34:57;;;;;;;7.13;1.87;;;;;;;;;;4975138;28;20183;-85
2021/05/04 13:38:27;;;;;;;5.67;1.50;;;;;;;;;;4953182;28;20182;-85
2021/05/04 13:48:22;;;;;;;6.97;1.50;;;;;;;;;;4963668;28;20179;-85
2021/05/04 13:51:27;;;;;;;2.40;1.20;;;;;;;;;;4964050;28;20214;-86
2021/05/04 13:54:31;;;;;;;4.40;1.10;;;;;;;;;;4952636;28;20183;-85
2021/05/04 13:57:37;;;;;;;6.37;1.40;;;;;;;;;;4959415;28;20202;-85
2021/05/04 14:00:56;;;;;;;4.60;1.27;;;;;;;;;;4998569;28;20178;-85
2021/05/04 14:27:31;;;;;;;2.60;1.47;;;;;;;;;;4985130;28;20637;-86
2021/05/04 14:30:36;;;;;;;3.23;1.30;;;;;;;;;;4985221;28;20178;-86
2021/05/04 14:33:41;;;;;;;3.73;1.30;;;;;;;;;;4984516;28;20186;-86
2021/05/04 15:00:14;;;;;;;2.93;1.17;;;;;;;;;;4973509;28;20210;-89
2021/05/04 15:02:44;;;;;;;3.57;1.37;;;;;;;;;;4973684;28;20230;-89
2021/05/04 15:05:48;;;;;;;1.77;1.50;;;;;;;;;;4975367;28;20182;-89
2021/05/04 15:08:52;;;;;;;3.00;1.50;;;;;;;;;;4962366;28;20178;-89
2021/05/04 15:11:56;;;;;;;3.30;1.60;;;;;;;;;;4973117;28;20217;-89
2021/05/04 15:15:03;;;;;;;2.17;1.20;;;;;;;;;;4965342;28;20190;-89
2021/05/04 15:21:44;;;;;;;1.70;1.20;;;;;;;;;;4957893;28;20581;-87
2021/05/04 15:24:48;;;;;;;2.87;1.13;;;;;;;;;;5024277;23;20233;-83
2021/05/04 15:27:52;;;;;;;3.00;1.50;;;;;;;;;;4996915;28;20198;-82
2021/05/04 15:30:57;;;;;;;3.87;1.40;;;;;;;;;;4971256;28;20182;-83
2021/05/04 15:34:07;;;;;;;1.50;1.20;;;;;;;;;;4959916;28;20198;-82
2021/05/04 15:37:11;;;;;;;8.60;1.40;;;;;;;;;;4960857;28;20522;-83
2021/05/04 15:40:16;;;;;;;1.93;1.20;;;;;;;;;;4981733;28;20217;-83
2021/05/04 15:43:21;;;;;;;6.00;1.10;;;;;;;;;;4975451;28;20210;-82
2021/05/04 15:46:34;;;;;;;2.73;1.70;;;;;;;;;;4951400;28;20215;-82
2021/05/04 15:49:48;;;;;;;1.57;1.10;;;;;;;;;;4954023;28;20176;-81
2021/05/04 15:53:01;;;;;;;4.37;1.20;;;;;;;;;;4954932;28;20179;-82
2021/05/04 16:00:21;;;;;;;2.27;1.30;;;;;;;;;;4951274;28;20218;-85
2021/05/04 16:06:36;;;;;;;3.30;1.50;;;;;;;;;;4968370;28;20222;-86
2021/05/04 16:09:41;;;;;;;5.40;1.60;;;;;;;;;;4970165;28;20171;-86
2021/05/04 16:12:45;;;;;;;7.83;1.37;;;;;;;;;;4970333;28;20197;-86
2021/05/04 16:15:49;;;;;;;2.50;1.30;;;;;;;;;;4973113;28;20214;-85
2021/05/04 16:19:11;;;;;;;3.50;1.50;;;;;;;;;;4972475;28;20185;-85
2021/05/04 16:22:25;;;;;;;2.77;1.30;;;;;;;;;;4972187;28;20194;-86
2021/05/04 16:25:40;;;;;;;6.70;1.80;;;;;;;;;;4983290;28;20226;-86
2021/05/04 16:31:55;;;;;;;4.60;1.90;;;;;;;;;;4982149;28;20178;-86
2021/05/04 16:35:00;;;;;;;2.90;1.90;;;;;;;;;;4959008;28;20226;-85
2021/05/04 16:38:05;;;;;;;2.10;1.80;;;;;;;;;;4970283;28;20182;-86
2021/05/04 16:41:11;;;;;;;2.47;1.93;;;;;;;;;;4970434;28;20829;-88
2021/05/04 16:44:15;;;;;;;16.30;8.57;;;;;;;;;;4950347;28;20187;-87
2021/05/04 16:47:20;;;;;;;7.77;3.73;;;;;;;;;;4961477;28;20187;-85
2021/05/04 16:50:25;;;;;;;3.50;2.07;;;;;;;;;;4950736;28;20179;-87
2021/05/04 16:53:29;;;;;;;2.57;2.33;;;;;;;;;;4961451;28;20202;-86
2021/05/04 16:56:34;;;;;;;2.57;2.20;;;;;;;;;;4971992;28;20187;-87
2021/05/04 16:59:38;;;;;;;5.53;2.00;;;;;;;;;;4950029;28;20207;-85
2021/05/04 17:02:42;;;;;;;3.43;2.50;;;;;;;;;;4950198;28;20186;-86
2021/05/04 17:06:10;;;;;;;4.80;2.00;;;;;;;;;;4961058;28;20222;-87
2021/05/04 17:12:18;;;;;;;3.40;2.20;;;;;;;;;;4962370;28;20179;-87
2021/05/04 17:15:23;;;;;;;2.83;2.17;;;;;;;;;;4958332;28;20221;-88
2021/05/04 17:18:31;;;;;;;2.73;2.10;;;;;;;;;;4958405;28;20530;-87
2021/05/04 17:21:35;;;;;;;4.10;2.03;;;;;;;;;;4958071;28;20645;-88
2021/05/04 17:24:40;;;;;;;2.37;1.80;;;;;;;;;;4958269;28;20230;-87
2021/05/04 17:27:44;;;;;;;3.30;1.90;;;;;;;;;;4960995;28;20190;-87
2021/05/04 17:30:48;;;;;;;4.87;2.03;;;;;;;;;;4978802;28;20534;-87
2021/05/04 17:33:52;;;;;;;2.80;2.10;;;;;;;;;;4959430;28;20736;-86
2021/05/04 17:36:56;;;;;;;4.53;2.40;;;;;;;;;;4962455;28;20178;-87
2021/05/04 17:40:04;;;;;;;2.97;2.00;;;;;;;;;;4973026;28;20209;-88
2021/05/04 17:43:09;;;;;;;5.03;2.30;;;;;;;;;;4962064;28;20685;-89
2021/05/04 17:46:13;;;;;;;2.40;2.20;;;;;;;;;;4973164;28;20210;-88
2021/05/04 17:49:17;;;;;;;3.87;2.20;;;;;;;;;;4972568;28;20174;-87
2021/05/04 17:52:22;;;;;;;3.20;1.90;;;;;;;;;;4995842;28;20538;-87
2021/05/04 17:55:26;;;;;;;3.77;2.33;;;;;;;;;;4961270;28;20213;-86
2021/05/04 17:58:30;;;;;;;4.17;2.20;;;;;;;;;;4972751;28;20193;-87
2021/05/04 18:01:34;;;;;;;3.50;2.20;;;;;;;;;;4972588;28;20210;-86
2021/05/04 18:04:39;;;;;;;8.73;2.80;;;;;;;;;;4972762;28;20221;-87
2021/05/04 18:07:44;;;;;;;6.23;2.87;;;;;;;;;;4972560;28;20198;-88
2021/05/04 18:10:48;;;;;;;2.40;2.20;;;;;;;;;;4961300;28;20498;-87
2021/05/04 18:23:43;;;;;;;3.00;2.30;;;;;;;;;;4983373;28;20198;-86
2021/05/04 18:26:47;;;;;;;4.20;2.70;;;;;;;;;;4961323;28;20174;-86
2021/05/04 18:29:52;;;;;;;6.67;2.13;;;;;;;;;;4983384;28;20538;-86
2021/05/04 18:32:56;;;;;;;2.73;2.43;;;;;;;;;;4960778;28;20186;-86
2021/05/04 19:10:08;;;;;;;4.07;2.50;;;;;;;;;;4954153;28;20728;-87
2021/05/04 19:23:35;;;;;;;4.80;2.60;;;;;;;;;;4962880;28;20187;-86
2021/05/04 19:34:34;;;;;;;2.83;2.50;;;;;;;;;;4959024;28;20534;-86
2021/05/04 19:54:45;;;;;;;4.83;2.80;;;;;;;;;;4966048;28;20186;-86
2021/05/04 20:13:01;;;;;;;7.70;3.37;;;;;;;;;;4957330;28;20657;-86
2021/05/04 20:16:05;;;;;;;4.60;3.20;;;;;;;;;;4962297;28;20227;-86
2021/05/04 20:19:12;;;;;;;6.10;3.37;;;;;;;;;;4962667;28;20175;-85
2021/05/04 20:22:17;;;;;;;4.73;3.57;;;;;;;;;;4942684;28;20207;-87
2021/05/04 20:25:22;;;;;;;4.10;3.70;;;;;;;;;;4982863;28;20227;-86
2021/05/04 20:28:26;;;;;;;4.67;3.47;;;;;;;;;;4962372;28;20183;-86
2021/05/04 20:31:33;;;;;;;5.17;3.70;;;;;;;;;;4940502;28;20179;-87
2021/05/04 20:34:46;;;;;;;5.47;3.90;;;;;;;;;;4962604;28;20217;-85
2021/05/04 20:37:54;;;;;;;3.30;3.00;;;;;;;;;;4961158;28;20186;-86
2021/05/04 20:41:00;;;;;;;6.77;3.40;;;;;;;;;;4961154;28;20207;-86
2021/05/04 20:44:05;;;;;;;5.60;3.70;;;;;;;;;;4952331;28;20186;-87
2021/05/04 20:47:10;;;;;;;9.03;5.33;;;;;;;;;;4961248;28;20198;-87
2021/05/04 20:50:16;;;;;;;6.60;4.60;;;;;;;;;;4972079;28;20201;-87
2021/05/04 20:53:20;;;;;;;6.00;3.53;;;;;;;;;;4960728;28;20178;-86
2021/05/04 20:56:24;;;;;;;4.53;3.00;;;;;;;;;;4960541;28;20689;-86
2021/05/04 20:59:28;;;;;;;6.07;3.30;;;;;;;;;;4960734;28;20182;-86
2021/05/04 21:02:32;;;;;;;3.57;2.70;;;;;;;;;;4971916;28;20206;-86
2021/05/04 21:05:39;;;;;;;2.77;2.20;;;;;;;;;;4941251;28;20226;-86
2021/05/04 21:08:44;;;;;;;5.17;2.37;;;;;;;;;;4963935;28;20186;-86
2021/05/04 21:15:09;;;;;;;2.63;2.43;;;;;;;;;;4962875;28;20219;-87
2021/05/04 21:18:16;;;;;;;3.97;2.67;;;;;;;;;;4952185;28;20183;-87
2021/05/04 21:21:30;;;;;;;2.70;2.50;;;;;;;;;;4963012;28;20222;-87
2021/05/04 21:24:39;;;;;;;3.87;2.90;;;;;;;;;;4977060;23;20226;-85
2021/05/04 21:27:43;;;;;;;3.80;2.60;;;;;;;;;;5013421;28;20214;-83
2021/05/04 21:30:48;;;;;;;2.87;2.60;;;;;;;;;;5002228;28;20177;-86
2021/05/04 21:33:52;;;;;;;2.97;2.63;;;;;;;;;;5002409;28;20182;-85
2021/05/04 21:36:58;;;;;;;3.23;2.40;;;;;;;;;;4971850;28;20178;-85